Flight Track Log - Related Links

Times and Time Zones

All times are in EDT time to prevent confusion due to time zone crossing. See the FLG3800 flight status page for this flight to view local times or setup timezone preferences in your user account.

Time Position Orientation Groundspeed Altitude Reporting Facility
EDT Latitude Longitude Course Direction KTS MPH feet Rate Location/Type
Tue 09:37:32 PM 42.1994 -83.3608 82° East 192 221 1,200  Level Cleveland Center
Tue 09:38:15 PM 42.1639 -83.3594 178° South 192 221 2,800 2,188 Climbing Cleveland Center
Tue 09:38:57 PM 42.1225 -83.3492 170° South 211 243 4,300 1,941 Climbing Cleveland Center
Tue 09:39:57 PM 42.0714 -83.3050 147° Southeast 256 295 6,100 1,700 Climbing Cleveland Center
Tue 09:40:00 PM 42.2865 -82.9006 75° East  Level FlightAware Approximate
Tue 09:40:57 PM 42.0903 -83.2189 74° East 230 265 7,700  Level Cleveland Center
Tue 09:41:00 PM 42.3165 -82.7510 75° East  Level FlightAware Approximate
Tue 09:41:57 PM 42.1364 -83.1089 60° Northeast 238 274 10,600  Level Cleveland Center
Tue 09:42:00 PM 42.3319 -82.5974 82° East  Level FlightAware Approximate
Tue 09:42:57 PM 42.1783 -82.9983 63° Northeast 279 321 11,600  Level Cleveland Center
Tue 09:43:57 PM 42.2228 -82.8711 65° Northeast 333 383 12,800 1,350 Climbing Cleveland Center
Tue 09:44:57 PM 42.2692 -82.7353 65° Northeast 366 421 14,300 1,550 Climbing Cleveland Center
Tue 09:45:57 PM 42.3175 -82.6022 64° Northeast 384 442 15,900 1,450 Climbing Cleveland Center
Tue 09:46:57 PM 42.3614 -82.4658 66° East 389 448 17,200 1,350 Climbing Cleveland Center
Tue 09:47:57 PM 42.3619 -82.3028 90° East 405 466 18,600 1,250 Climbing Cleveland Center
Tue 09:48:57 PM 42.3539 -82.1369 94° East 419 482 19,700 1,050 Climbing Cleveland Center
Tue 09:49:57 PM 42.3475 -81.9681 93° East 443 510 20,700 1,000 Climbing Cleveland Center
Tue 09:50:57 PM 42.3392 -81.7994 94° East 443 510 21,700 1,050 Climbing Cleveland Center
Tue 09:51:57 PM 42.3325 -81.6336 93° East 451 519 22,800 1,050 Climbing Cleveland Center
Tue 09:52:57 PM 42.3233 -81.4622 94° East 446 513 23,800 1,000 Climbing Cleveland Center
Tue 09:53:57 PM 42.3164 -81.2881 93° East 452 520 24,800 1,000 Climbing Cleveland Center
Tue 09:54:57 PM 42.3069 -81.1167 94° East 457 526 25,800 1,000 Climbing Cleveland Center
Tue 09:55:57 PM 42.2992 -80.9453 93° East 462 532 26,800 600 Climbing Cleveland Center
Tue 09:56:57 PM 42.2933 -80.7853 93° East 468 539 27,000 100 Climbing Cleveland Center
Tue 09:57:57 PM 42.3414 -80.6253 68° East 447 514 27,000  Level Cleveland Center
Tue 09:58:57 PM 42.3933 -80.4650 66° East 455 524 27,000  Level Cleveland Center
Tue 09:59:57 PM 42.4475 -80.3047 65° Northeast 461 531 27,000  Level Cleveland Center
Tue 10:00:57 PM 42.5011 -80.1383 66° East 470 541 27,000  Level Cleveland Center
Tue 10:01:57 PM 42.5525 -79.9717 67° East 477 549 27,000  Level Cleveland Center
Tue 10:02:57 PM 42.6097 -79.8047 65° Northeast 477 549 27,000  Level Cleveland Center
Tue 10:03:57 PM 42.6628 -79.6403 66° East 477 549 27,000  Level Cleveland Center
Tue 10:04:57 PM 42.7133 -79.4783 67° East 477 549 27,000  Level Cleveland Center
Tue 10:05:57 PM 42.7658 -79.3133 67° East 472 543 27,000  Level Cleveland Center
Tue 10:06:57 PM 42.8119 -79.1539 68° East 466 536 27,000  Level Cleveland Center
Tue 10:07:57 PM 42.8661 -78.9911 66° East 460 529 27,000  Level Cleveland Center
Tue 10:08:57 PM 42.9139 -78.8286 68° East 460 529 27,000  Level Cleveland Center
Tue 10:09:57 PM 42.9633 -78.6653 67° East 460 529 27,000  Level Cleveland Center
Tue 10:10:57 PM 43.0125 -78.4992 68° East 460 529 27,000  Level Cleveland Center
Tue 10:11:57 PM 43.0636 -78.3356 67° East 460 529 27,000  Level Cleveland Center
Tue 10:12:57 PM 43.1125 -78.1744 67° East 455 524 27,000  Level Cleveland Center
Tue 10:13:57 PM 43.1611 -78.0103 68° East 455 524 27,000  Level Cleveland Center
Tue 10:14:57 PM 43.2114 -77.8458 67° East 455 524 27,000  Level Cleveland Center
Tue 10:15:57 PM 43.2575 -77.6783 69° East 455 524 27,000  Level Cleveland Center
Tue 10:16:57 PM 43.3072 -77.5106 68° East 455 524 27,000  Level Cleveland Center
Tue 10:18:56 PM 43.4072 -77.1681 68° East 462 532 27,000  Level Boston Center
Tue 10:19:55 PM 43.4556 -77.0000 68° East 462 532 27,000  Level Boston Center
Tue 10:20:55 PM 43.5039 -76.8347 68° East 462 532 27,000  Level Boston Center
Tue 10:21:56 PM 43.5519 -76.6664 68° East 462 532 27,000  Level Boston Center
Tue 10:22:56 PM 43.5950 -76.5144 69° East 467 537 27,000 -150 Level Boston Center
Tue 10:23:56 PM 43.6425 -76.3453 69° East 467 537 26,700 -756 Descending Boston Center
Tue 10:24:55 PM 43.6922 -76.1675 69° East 461 531 25,500 -1,210 Descending Boston Center
Tue 10:25:55 PM 43.7347 -76.0122 69° East 450 518 24,300 -1,200 Descending Boston Center
Tue 10:26:55 PM 43.7747 -75.8650 69° East 429 494 23,100 -1,190 Descending Boston Center
Tue 10:27:56 PM 43.8144 -75.7203 69° East 413 475 21,900 -1,091 Descending Boston Center
Tue 10:28:56 PM 43.8539 -75.5728 70° East 403 464 20,900 -1,008 Descending Boston Center
Tue 10:29:55 PM 43.8933 -75.4222 70° East 403 464 19,900 -958 Descending Boston Center
Tue 10:30:55 PM 43.9281 -75.2883 70° East 397 457 19,000 -446 Descending Boston Center
Tue 10:31:56 PM 43.9647 -75.1517 70° East 385 443 19,000  Level Boston Center
Tue 10:32:56 PM 44.0033 -75.0089 69° East 385 443 19,000  Level Boston Center
Tue 10:33:55 PM 44.0397 -74.8661 70° East 385 443 19,000  Level Boston Center
Tue 10:34:55 PM 44.0761 -74.7261 70° East 385 443 19,000  Level Boston Center
Tue 10:35:56 PM 44.1100 -74.5856 71° East 385 443 19,000  Level Boston Center
Tue 10:36:55 PM 44.1481 -74.4453 69° East 385 443 19,000 -655 Level Boston Center
Tue 10:37:55 PM 44.1836 -74.3044 71° East 385 443 17,700 -1,438 Descending Boston Center
Tue 10:38:56 PM 44.2192 -74.1753 69° East 379 436 16,100 -1,636 Descending Boston Center
Tue 10:39:56 PM 44.2481 -74.0544 72° East 367 422 14,400 -1,866 Descending Boston Center
Tue 10:40:55 PM 44.2808 -73.9247 71° East 362 417 12,400 -1,650 Descending Boston Center
Tue 10:41:56 PM 44.3239 -73.8156 61° Northeast 341 392 11,100 -1,650 Descending Boston Center
Tue 10:42:55 PM 44.3708 -73.7294 53° Northeast 306 352 9,100 -1,916 Descending Boston Center
Tue 10:43:55 PM 44.4133 -73.6403 56° Northeast 281 323 7,300 -1,800 Descending Boston Center
Tue 10:44:55 PM 44.4478 -73.5508 62° Northeast 270 311 5,500 -1,600 Descending Boston Center
Tue 10:45:55 PM 44.4778 -73.4583 66° East 262 302 4,100 -1,100 Descending Boston Center
Tue 10:46:55 PM 44.4972 -73.3686 73° East 231 266 3,300 -900 Descending Boston Center
Tue 10:47:55 PM 44.5122 -73.2989 73° East 194 223 2,300 -1,000 Descending Boston Center

Login

Don't have an account? Register now (free) for customized features, flight alerts, and more!